sensor_id;sensor_type;location;lat;lon;timestamp;pressure;altitude;pressure_sealevel;temperature;humidity
57024;BME280;42916;54.346;18.562;2023-07-16T00:00:21;99907.12;;;20.61;61.84
57024;BME280;42916;54.346;18.562;2023-07-16T00:03:13;99902.94;;;20.56;61.98
57024;BME280;42916;54.346;18.562;2023-07-16T00:05:40;99903.36;;;20.50;62.13
57024;BME280;42916;54.346;18.562;2023-07-16T00:08:07;99903.33;;;20.46;62.27
57024;BME280;42916;54.346;18.562;2023-07-16T00:10:35;99901.95;;;20.41;62.47
57024;BME280;42916;54.346;18.562;2023-07-16T00:13:05;99902.05;;;20.36;62.59
57024;BME280;42916;54.346;18.562;2023-07-16T00:15:32;99898.67;;;20.32;62.72
57024;BME280;42916;54.346;18.562;2023-07-16T00:17:59;99903.84;;;20.27;62.99
57024;BME280;42916;54.346;18.562;2023-07-16T00:20:26;99905.27;;;20.23;63.20
57024;BME280;42916;54.346;18.562;2023-07-16T00:22:53;99898.59;;;20.18;63.35
57024;BME280;42916;54.346;18.562;2023-07-16T00:25:20;99890.95;;;20.13;63.32
57024;BME280;42916;54.346;18.562;2023-07-16T00:27:47;99888.82;;;20.09;63.76
57024;BME280;42916;54.346;18.562;2023-07-16T00:30:15;99889.71;;;20.04;64.06
57024;BME280;42916;54.346;18.562;2023-07-16T00:32:42;99888.79;;;20.02;64.20
57024;BME280;42916;54.346;18.562;2023-07-16T00:35:09;99884.70;;;20.01;64.43
57024;BME280;42916;54.346;18.562;2023-07-16T00:37:37;99882.27;;;20.01;64.60
57024;BME280;42916;54.346;18.562;2023-07-16T00:40:04;99888.47;;;20.00;64.83
57024;BME280;42916;54.346;18.562;2023-07-16T00:42:31;99885.86;;;19.99;64.82
57024;BME280;42916;54.346;18.562;2023-07-16T00:44:58;99885.71;;;19.99;65.01
57024;BME280;42916;54.346;18.562;2023-07-16T00:47:25;99879.84;;;19.98;65.18
57024;BME280;42916;54.346;18.562;2023-07-16T00:49:52;99873.19;;;19.97;65.35
57024;BME280;42916;54.346;18.562;2023-07-16T00:52:20;99873.28;;;19.96;65.52
57024;BME280;42916;54.346;18.562;2023-07-16T00:54:50;99869.33;;;19.93;65.66
57024;BME280;42916;54.346;18.562;2023-07-16T00:57:17;99864.07;;;19.92;65.93
57024;BME280;42916;54.346;18.562;2023-07-16T00:59:43;99864.47;;;19.90;66.03
57024;BME280;42916;54.346;18.562;2023-07-16T01:02:10;99862.73;;;19.88;66.13
57024;BME280;42916;54.346;18.562;2023-07-16T01:04:37;99861.77;;;19.86;66.27
57024;BME280;42916;54.346;18.562;2023-07-16T01:07:06;99854.02;;;19.83;66.36
57024;BME280;42916;54.346;18.562;2023-07-16T01:09:36;99855.94;;;19.82;66.44
57024;BME280;42916;54.346;18.562;2023-07-16T01:12:07;99849.41;;;19.81;66.50
57024;BME280;42916;54.346;18.562;2023-07-16T01:14:36;99846.63;;;19.80;66.72
57024;BME280;42916;54.346;18.562;2023-07-16T01:17:07;99846.65;;;19.81;66.69
57024;BME280;42916;54.346;18.562;2023-07-16T01:19:34;99839.25;;;19.83;66.87
57024;BME280;42916;54.346;18.562;2023-07-16T01:30:52;99832.41;;;19.87;67.32
57024;BME280;42916;54.346;18.562;2023-07-16T01:33:21;99839.56;;;19.85;67.43
57024;BME280;42916;54.346;18.562;2023-07-16T01:35:50;99835.42;;;19.80;67.67
57024;BME280;42916;54.346;18.562;2023-07-16T01:38:17;99834.14;;;19.74;68.07
57024;BME280;42916;54.346;18.562;2023-07-16T01:40:45;99839.66;;;19.69;68.19
57024;BME280;42916;54.346;18.562;2023-07-16T01:43:12;99835.52;;;19.62;68.43
57024;BME280;42916;54.346;18.562;2023-07-16T01:45:39;99835.28;;;19.56;68.55
57024;BME280;42916;54.346;18.562;2023-07-16T01:50:40;99831.68;;;19.49;68.57
57024;BME280;42916;54.346;18.562;2023-07-16T01:53:08;99828.27;;;19.47;68.70
57024;BME280;42916;54.346;18.562;2023-07-16T01:55:34;99827.30;;;19.46;68.80
57024;BME280;42916;54.346;18.562;2023-07-16T01:58:01;99819.48;;;19.46;68.79
57024;BME280;42916;54.346;18.562;2023-07-16T02:00:29;99821.24;;;19.49;68.80
57024;BME280;42916;54.346;18.562;2023-07-16T02:02:56;99824.52;;;19.53;68.94
57024;BME280;42916;54.346;18.562;2023-07-16T02:05:22;99820.13;;;19.58;68.93
57024;BME280;42916;54.346;18.562;2023-07-16T02:07:49;99819.34;;;19.61;68.99
57024;BME280;42916;54.346;18.562;2023-07-16T02:10:16;99817.70;;;19.65;69.07
57024;BME280;42916;54.346;18.562;2023-07-16T02:12:43;99823.52;;;19.69;69.10
57024;BME280;42916;54.346;18.562;2023-07-16T02:15:10;99818.70;;;19.74;68.95
57024;BME280;42916;54.346;18.562;2023-07-16T02:17:37;99811.78;;;19.80;68.76
57024;BME280;42916;54.346;18.562;2023-07-16T02:20:05;99813.66;;;19.86;68.64
57024;BME280;42916;54.346;18.562;2023-07-16T02:22:33;99813.27;;;19.91;68.57
57024;BME280;42916;54.346;18.562;2023-07-16T02:25:00;99814.42;;;19.95;68.32
57024;BME280;42916;54.346;18.562;2023-07-16T02:27:27;99819.10;;;20.00;68.20
57024;BME280;42916;54.346;18.562;2023-07-16T02:29:54;99817.77;;;20.04;68.16
57024;BME280;42916;54.346;18.562;2023-07-16T02:32:22;99808.17;;;20.06;68.10
57024;BME280;42916;54.346;18.562;2023-07-16T02:34:49;99811.05;;;20.11;68.00
57024;BME280;42916;54.346;18.562;2023-07-16T02:37:16;99814.73;;;20.14;67.70
57024;BME280;42916;54.346;18.562;2023-07-16T02:39:44;99816.89;;;20.19;67.65
57024;BME280;42916;54.346;18.562;2023-07-16T02:42:11;99821.20;;;20.23;67.52
57024;BME280;42916;54.346;18.562;2023-07-16T02:44:38;99821.05;;;20.27;67.42
57024;BME280;42916;54.346;18.562;2023-07-16T02:47:12;99808.23;;;20.30;67.26
57024;BME280;42916;54.346;18.562;2023-07-16T02:49:39;99798.11;;;20.34;67.12
57024;BME280;42916;54.346;18.562;2023-07-16T02:52:06;99789.27;;;20.38;66.98
57024;BME280;42916;54.346;18.562;2023-07-16T02:54:35;99783.30;;;20.41;66.83
57024;BME280;42916;54.346;18.562;2023-07-16T02:57:02;99785.80;;;20.44;66.68
57024;BME280;42916;54.346;18.562;2023-07-16T02:59:29;99787.00;;;20.46;66.59
57024;BME280;42916;54.346;18.562;2023-07-16T03:01:56;99795.38;;;20.49;66.54
57024;BME280;42916;54.346;18.562;2023-07-16T03:04:23;99790.52;;;20.52;66.44
57024;BME280;42916;54.346;18.562;2023-07-16T03:06:49;99787.31;;;20.55;66.24
57024;BME280;42916;54.346;18.562;2023-07-16T03:09:17;99783.32;;;20.58;66.16
57024;BME280;42916;54.346;18.562;2023-07-16T03:11:44;99784.45;;;20.62;66.06
57024;BME280;42916;54.346;18.562;2023-07-16T03:14:10;99786.90;;;20.66;65.96
57024;BME280;42916;54.346;18.562;2023-07-16T03:16:37;99783.94;;;20.69;65.86
57024;BME280;42916;54.346;18.562;2023-07-16T03:19:04;99783.52;;;20.73;65.57
57024;BME280;42916;54.346;18.562;2023-07-16T03:21:32;99769.27;;;20.76;65.59
57024;BME280;42916;54.346;18.562;2023-07-16T03:23:59;99764.95;;;20.80;65.39
57024;BME280;42916;54.346;18.562;2023-07-16T03:26:26;99765.48;;;20.83;65.29
57024;BME280;42916;54.346;18.562;2023-07-16T03:28:53;99758.68;;;20.85;65.24
57024;BME280;42916;54.346;18.562;2023-07-16T03:31:20;99761.16;;;20.88;64.96
57024;BME280;42916;54.346;18.562;2023-07-16T03:33:47;99775.31;;;20.91;64.90
57024;BME280;42916;54.346;18.562;2023-07-16T03:36:14;99779.13;;;20.94;64.79
57024;BME280;42916;54.346;18.562;2023-07-16T03:38:42;99776.30;;;20.94;64.74
57024;BME280;42916;54.346;18.562;2023-07-16T03:41:09;99770.94;;;20.93;64.63
57024;BME280;42916;54.346;18.562;2023-07-16T03:43:35;99769.29;;;20.90;64.59
57024;BME280;42916;54.346;18.562;2023-07-16T03:46:16;99773.09;;;20.86;64.69
57024;BME280;42916;54.346;18.562;2023-07-16T03:48:43;99775.14;;;20.82;64.74
57024;BME280;42916;54.346;18.562;2023-07-16T03:51:10;99778.11;;;20.79;64.69
57024;BME280;42916;54.346;18.562;2023-07-16T03:53:38;99782.86;;;20.75;65.00
57024;BME280;42916;54.346;18.562;2023-07-16T03:56:04;99780.46;;;20.69;65.10
57024;BME280;42916;54.346;18.562;2023-07-16T03:58:31;99775.19;;;20.66;65.15
57024;BME280;42916;54.346;18.562;2023-07-16T04:00:58;99772.90;;;20.63;65.32
57024;BME280;42916;54.346;18.562;2023-07-16T04:03:26;99771.17;;;20.64;65.62
57024;BME280;42916;54.346;18.562;2023-07-16T04:06:04;99770.55;;;20.64;65.73
57024;BME280;42916;54.346;18.562;2023-07-16T04:08:31;99765.52;;;20.67;65.90
57024;BME280;42916;54.346;18.562;2023-07-16T04:10:58;99758.38;;;20.70;66.06
57024;BME280;42916;54.346;18.562;2023-07-16T04:13:25;99759.24;;;20.75;66.14
57024;BME280;42916;54.346;18.562;2023-07-16T04:15:52;99759.63;;;20.83;66.15
57024;BME280;42916;54.346;18.562;2023-07-16T04:18:27;99757.87;;;20.93;66.31
57024;BME280;42916;54.346;18.562;2023-07-16T04:20:54;99759.63;;;21.08;66.21
57024;BME280;42916;54.346;18.562;2023-07-16T04:23:20;99757.26;;;21.24;66.16
57024;BME280;42916;54.346;18.562;2023-07-16T04:25:51;99751.04;;;21.39;66.16
57024;BME280;42916;54.346;18.562;2023-07-16T04:28:18;99750.35;;;21.53;65.71
57024;BME280;42916;54.346;18.562;2023-07-16T04:30:44;99745.44;;;21.67;65.50
57024;BME280;42916;54.346;18.562;2023-07-16T04:33:11;99746.60;;;21.81;65.17
57024;BME280;42916;54.346;18.562;2023-07-16T04:35:38;99746.13;;;21.94;64.98
57024;BME280;42916;54.346;18.562;2023-07-16T04:38:05;99750.55;;;22.07;64.80
57024;BME280;42916;54.346;18.562;2023-07-16T04:40:32;99743.92;;;22.18;64.58
57024;BME280;42916;54.346;18.562;2023-07-16T04:42:58;99745.63;;;22.26;64.09
57024;BME280;42916;54.346;18.562;2023-07-16T04:45:25;99748.20;;;22.33;63.82
57024;BME280;42916;54.346;18.562;2023-07-16T04:47:52;99749.56;;;22.39;63.58
57024;BME280;42916;54.346;18.562;2023-07-16T04:50:19;99747.34;;;22.44;63.53
57024;BME280;42916;54.346;18.562;2023-07-16T04:52:46;99748.17;;;22.48;63.32
57024;BME280;42916;54.346;18.562;2023-07-16T04:55:12;99751.13;;;22.54;63.13
57024;BME280;42916;54.346;18.562;2023-07-16T04:57:39;99748.77;;;22.61;62.93
57024;BME280;42916;54.346;18.562;2023-07-16T05:00:07;99743.17;;;22.65;62.77
57024;BME280;42916;54.346;18.562;2023-07-16T05:02:34;99745.02;;;22.69;62.61
57024;BME280;42916;54.346;18.562;2023-07-16T05:05:01;99741.20;;;22.71;62.48
57024;BME280;42916;54.346;18.562;2023-07-16T05:07:28;99741.69;;;22.74;62.43
57024;BME280;42916;54.346;18.562;2023-07-16T05:09:54;99740.92;;;22.72;62.25
57024;BME280;42916;54.346;18.562;2023-07-16T05:12:21;99743.17;;;22.70;62.17
57024;BME280;42916;54.346;18.562;2023-07-16T05:14:48;99748.40;;;22.68;62.17
57024;BME280;42916;54.346;18.562;2023-07-16T05:17:15;99756.91;;;22.66;62.21
57024;BME280;42916;54.346;18.562;2023-07-16T05:19:42;99756.78;;;22.64;62.24
57024;BME280;42916;54.346;18.562;2023-07-16T05:22:08;99768.34;;;22.61;62.22
57024;BME280;42916;54.346;18.562;2023-07-16T05:24:35;99759.03;;;22.60;62.27
57024;BME280;42916;54.346;18.562;2023-07-16T05:27:03;99766.01;;;22.57;62.44
57024;BME280;42916;54.346;18.562;2023-07-16T05:29:30;99774.12;;;22.55;62.47
57024;BME280;42916;54.346;18.562;2023-07-16T05:31:56;99784.56;;;22.55;62.62
57024;BME280;42916;54.346;18.562;2023-07-16T05:34:23;99779.49;;;22.55;62.63
57024;BME280;42916;54.346;18.562;2023-07-16T05:36:53;99790.11;;;22.56;62.81
57024;BME280;42916;54.346;18.562;2023-07-16T05:39:21;99789.48;;;22.58;62.98
57024;BME280;42916;54.346;18.562;2023-07-16T05:41:48;99785.60;;;22.61;63.06
57024;BME280;42916;54.346;18.562;2023-07-16T05:44:15;99784.59;;;22.64;63.07
57024;BME280;42916;54.346;18.562;2023-07-16T05:46:42;99781.89;;;22.69;63.17
57024;BME280;42916;54.346;18.562;2023-07-16T05:49:09;99781.98;;;22.73;63.22
57024;BME280;42916;54.346;18.562;2023-07-16T05:51:36;99776.59;;;22.75;63.29
57024;BME280;42916;54.346;18.562;2023-07-16T05:54:03;99806.64;;;22.79;63.40
57024;BME280;42916;54.346;18.562;2023-07-16T05:56:29;99831.34;;;22.84;63.41
57024;BME280;42916;54.346;18.562;2023-07-16T05:58:56;99823.54;;;22.88;63.62
57024;BME280;42916;54.346;18.562;2023-07-16T06:01:23;99827.83;;;22.94;63.62
57024;BME280;42916;54.346;18.562;2023-07-16T06:03:50;99829.45;;;22.98;63.62
57024;BME280;42916;54.346;18.562;2023-07-16T06:06:17;99811.52;;;23.03;63.69
57024;BME280;42916;54.346;18.562;2023-07-16T06:08:43;99808.23;;;23.13;63.73
57024;BME280;42916;54.346;18.562;2023-07-16T06:11:11;99812.04;;;23.22;63.69
57024;BME280;42916;54.346;18.562;2023-07-16T06:13:38;99816.54;;;23.35;63.62
57024;BME280;42916;54.346;18.562;2023-07-16T06:16:05;99819.02;;;23.49;63.61
57024;BME280;42916;54.346;18.562;2023-07-16T06:18:32;99819.13;;;23.62;63.41
57024;BME280;42916;54.346;18.562;2023-07-16T06:20:59;99815.89;;;23.73;63.14
57024;BME280;42916;54.346;18.562;2023-07-16T06:23:25;99809.59;;;23.83;62.73
57024;BME280;42916;54.346;18.562;2023-07-16T06:25:56;99801.82;;;23.93;62.44
57024;BME280;42916;54.346;18.562;2023-07-16T06:28:23;99805.50;;;24.04;62.28
57024;BME280;42916;54.346;18.562;2023-07-16T06:30:50;99796.11;;;24.17;62.02
57024;BME280;42916;54.346;18.562;2023-07-16T06:33:18;99782.39;;;24.32;61.72
57024;BME280;42916;54.346;18.562;2023-07-16T06:35:46;99779.17;;;24.48;61.56
57024;BME280;42916;54.346;18.562;2023-07-16T06:38:16;99783.05;;;24.65;60.79
57024;BME280;42916;54.346;18.562;2023-07-16T06:40:47;99778.51;;;24.80;60.57
57024;BME280;42916;54.346;18.562;2023-07-16T06:43:16;99778.70;;;24.95;60.19
57024;BME280;42916;54.346;18.562;2023-07-16T06:45:43;99775.97;;;25.10;59.84
57024;BME280;42916;54.346;18.562;2023-07-16T06:48:10;99785.00;;;25.25;59.46
57024;BME280;42916;54.346;18.562;2023-07-16T06:50:37;99794.25;;;25.39;58.28
57024;BME280;42916;54.346;18.562;2023-07-16T06:53:03;99788.13;;;25.52;57.78
57024;BME280;42916;54.346;18.562;2023-07-16T06:55:30;99789.20;;;25.64;56.68
57024;BME280;42916;54.346;18.562;2023-07-16T06:57:57;99790.21;;;25.72;56.09
57024;BME280;42916;54.346;18.562;2023-07-16T07:00:24;99803.60;;;25.83;55.40
57024;BME280;42916;54.346;18.562;2023-07-16T07:02:51;99818.95;;;25.92;55.03
57024;BME280;42916;54.346;18.562;2023-07-16T07:05:18;99815.84;;;26.00;54.77
57024;BME280;42916;54.346;18.562;2023-07-16T07:07:45;99822.81;;;26.08;54.86
57024;BME280;42916;54.346;18.562;2023-07-16T07:10:12;99812.90;;;26.16;54.76
57024;BME280;42916;54.346;18.562;2023-07-16T07:12:40;99814.44;;;26.24;54.44
57024;BME280;42916;54.346;18.562;2023-07-16T07:15:07;99812.89;;;26.31;54.14
57024;BME280;42916;54.346;18.562;2023-07-16T07:17:35;99823.95;;;26.42;54.10
57024;BME280;42916;54.346;18.562;2023-07-16T07:20:02;99837.77;;;26.53;53.37
57024;BME280;42916;54.346;18.562;2023-07-16T07:22:31;99834.23;;;26.59;53.04
57024;BME280;42916;54.346;18.562;2023-07-16T07:24:58;99847.58;;;26.66;51.65
57024;BME280;42916;54.346;18.562;2023-07-16T07:27:25;99849.23;;;26.71;51.00
57024;BME280;42916;54.346;18.562;2023-07-16T07:29:52;99866.52;;;26.71;50.10
57024;BME280;42916;54.346;18.562;2023-07-16T07:32:19;99872.95;;;26.64;49.45
57024;BME280;42916;54.346;18.562;2023-07-16T07:34:48;99872.66;;;26.57;49.35
57024;BME280;42916;54.346;18.562;2023-07-16T07:37:14;99873.38;;;26.55;49.21
57024;BME280;42916;54.346;18.562;2023-07-16T07:39:41;99876.41;;;26.56;49.38
57024;BME280;42916;54.346;18.562;2023-07-16T07:42:08;99888.65;;;26.59;49.35
57024;BME280;42916;54.346;18.562;2023-07-16T07:44:36;99897.92;;;26.64;49.11
57024;BME280;42916;54.346;18.562;2023-07-16T07:47:04;99894.95;;;26.69;49.14
57024;BME280;42916;54.346;18.562;2023-07-16T07:49:31;99895.70;;;26.77;49.36
57024;BME280;42916;54.346;18.562;2023-07-16T07:51:58;99900.10;;;26.83;49.20
57024;BME280;42916;54.346;18.562;2023-07-16T07:54:24;99908.18;;;26.92;49.45
57024;BME280;42916;54.346;18.562;2023-07-16T07:56:51;99911.29;;;27.03;49.49
57024;BME280;42916;54.346;18.562;2023-07-16T07:59:18;99916.59;;;27.09;48.50
57024;BME280;42916;54.346;18.562;2023-07-16T08:01:45;99917.75;;;27.11;48.67
57024;BME280;42916;54.346;18.562;2023-07-16T08:04:11;99929.27;;;27.13;48.24
57024;BME280;42916;54.346;18.562;2023-07-16T08:06:38;99934.55;;;27.14;47.75
57024;BME280;42916;54.346;18.562;2023-07-16T08:09:05;99932.39;;;27.14;48.16
57024;BME280;42916;54.346;18.562;2023-07-16T08:11:32;99931.03;;;27.19;48.48
57024;BME280;42916;54.346;18.562;2023-07-16T08:13:59;99923.95;;;27.22;48.41
57024;BME280;42916;54.346;18.562;2023-07-16T08:16:26;99916.56;;;27.17;48.32
57024;BME280;42916;54.346;18.562;2023-07-16T08:18:52;99912.78;;;27.15;48.90
57024;BME280;42916;54.346;18.562;2023-07-16T08:21:19;99919.09;;;27.22;49.25
57024;BME280;42916;54.346;18.562;2023-07-16T08:23:48;99922.50;;;27.31;49.08
57024;BME280;42916;54.346;18.562;2023-07-16T08:26:16;99922.73;;;27.37;48.83
57024;BME280;42916;54.346;18.562;2023-07-16T08:28:43;99916.75;;;27.45;49.18
57024;BME280;42916;54.346;18.562;2023-07-16T08:31:11;99916.36;;;27.53;49.08
57024;BME280;42916;54.346;18.562;2023-07-16T08:33:39;99917.19;;;27.63;49.18
57024;BME280;42916;54.346;18.562;2023-07-16T08:36:06;99929.92;;;27.75;48.92
57024;BME280;42916;54.346;18.562;2023-07-16T08:38:33;99929.45;;;27.76;48.67
57024;BME280;42916;54.346;18.562;2023-07-16T08:41:00;99923.60;;;27.74;48.74
57024;BME280;42916;54.346;18.562;2023-07-16T08:43:28;99924.67;;;27.77;49.09
57024;BME280;42916;54.346;18.562;2023-07-16T08:45:56;99920.63;;;27.72;49.45
57024;BME280;42916;54.346;18.562;2023-07-16T08:48:24;99929.48;;;27.79;49.88
57024;BME280;42916;54.346;18.562;2023-07-16T08:50:51;99930.59;;;27.92;49.98
57024;BME280;42916;54.346;18.562;2023-07-16T08:53:18;99936.63;;;28.05;50.01
57024;BME280;42916;54.346;18.562;2023-07-16T08:55:45;99942.48;;;28.17;49.99
57024;BME280;42916;54.346;18.562;2023-07-16T08:58:14;99946.94;;;28.24;49.95
57024;BME280;42916;54.346;18.562;2023-07-16T09:00:44;99948.25;;;28.28;49.93
57024;BME280;42916;54.346;18.562;2023-07-16T09:03:12;99957.40;;;28.23;49.66
57024;BME280;42916;54.346;18.562;2023-07-16T09:05:45;99959.92;;;28.11;49.78
57024;BME280;42916;54.346;18.562;2023-07-16T09:08:12;99961.92;;;28.01;49.86
57024;BME280;42916;54.346;18.562;2023-07-16T09:10:41;99968.25;;;27.90;49.53
57024;BME280;42916;54.346;18.562;2023-07-16T09:13:08;99963.61;;;27.74;49.89
57024;BME280;42916;54.346;18.562;2023-07-16T09:15:34;99971.72;;;27.57;50.46
57024;BME280;42916;54.346;18.562;2023-07-16T09:18:01;99973.34;;;27.46;50.62
57024;BME280;42916;54.346;18.562;2023-07-16T09:20:29;99980.02;;;27.32;50.75
57024;BME280;42916;54.346;18.562;2023-07-16T09:22:57;99978.31;;;27.18;51.14
57024;BME280;42916;54.346;18.562;2023-07-16T09:25:33;99979.60;;;27.07;51.69
57024;BME280;42916;54.346;18.562;2023-07-16T09:28:03;99977.12;;;26.95;51.93
57024;BME280;42916;54.346;18.562;2023-07-16T09:30:33;99981.11;;;26.79;52.35
57024;BME280;42916;54.346;18.562;2023-07-16T09:33:31;99975.77;;;26.68;52.79
57024;BME280;42916;54.346;18.562;2023-07-16T09:35:58;99997.80;;;26.61;53.31
57024;BME280;42916;54.346;18.562;2023-07-16T09:38:27;100001.86;;;26.52;53.61
57024;BME280;42916;54.346;18.562;2023-07-16T09:40:55;100009.38;;;26.49;53.60
57024;BME280;42916;54.346;18.562;2023-07-16T09:43:23;100015.48;;;26.47;53.92
57024;BME280;42916;54.346;18.562;2023-07-16T09:45:49;100012.12;;;26.46;54.27
57024;BME280;42916;54.346;18.562;2023-07-16T09:48:16;100015.70;;;26.46;54.46
57024;BME280;42916;54.346;18.562;2023-07-16T09:50:50;100016.89;;;26.45;54.57
57024;BME280;42916;54.346;18.562;2023-07-16T09:53:20;100020.38;;;26.49;54.87
57024;BME280;42916;54.346;18.562;2023-07-16T09:55:48;100029.34;;;26.56;54.52
57024;BME280;42916;54.346;18.562;2023-07-16T09:58:18;100033.59;;;26.61;54.87
57024;BME280;42916;54.346;18.562;2023-07-16T10:00:47;100041.20;;;26.60;54.98
57024;BME280;42916;54.346;18.562;2023-07-16T10:03:15;100038.86;;;26.53;54.99
57024;BME280;42916;54.346;18.562;2023-07-16T10:05:44;100034.02;;;26.41;55.22
57024;BME280;42916;54.346;18.562;2023-07-16T10:08:18;100042.70;;;26.31;55.40
57024;BME280;42916;54.346;18.562;2023-07-16T10:10:53;100057.37;;;26.19;55.63
57024;BME280;42916;54.346;18.562;2023-07-16T10:13:23;100066.85;;;26.05;55.94
57024;BME280;42916;54.346;18.562;2023-07-16T10:15:54;100069.77;;;26.00;56.76
57024;BME280;42916;54.346;18.562;2023-07-16T10:18:31;100069.05;;;26.00;56.85
57024;BME280;42916;54.346;18.562;2023-07-16T10:21:04;100074.67;;;26.02;56.87
57024;BME280;42916;54.346;18.562;2023-07-16T10:23:39;100082.09;;;26.08;56.96
57024;BME280;42916;54.346;18.562;2023-07-16T10:26:09;100089.95;;;26.14;56.95
57024;BME280;42916;54.346;18.562;2023-07-16T10:28:37;100092.81;;;26.18;56.76
57024;BME280;42916;54.346;18.562;2023-07-16T10:31:05;100096.39;;;26.18;56.82
57024;BME280;42916;54.346;18.562;2023-07-16T10:33:34;100097.90;;;26.18;56.98
57024;BME280;42916;54.346;18.562;2023-07-16T10:36:04;100101.63;;;26.12;57.58
57024;BME280;42916;54.346;18.562;2023-07-16T10:38:40;100109.14;;;26.06;57.79
57024;BME280;42916;54.346;18.562;2023-07-16T10:41:07;100112.56;;;25.99;58.16
57024;BME280;42916;54.346;18.562;2023-07-16T10:43:34;100114.70;;;25.98;58.05
57024;BME280;42916;54.346;18.562;2023-07-16T10:46:02;100116.58;;;26.00;57.74
57024;BME280;42916;54.346;18.562;2023-07-16T10:48:29;100117.39;;;26.00;57.84
57024;BME280;42916;54.346;18.562;2023-07-16T10:50:56;100118.60;;;25.94;58.37
57024;BME280;42916;54.346;18.562;2023-07-16T10:53:23;100121.92;;;25.86;58.60
57024;BME280;42916;54.346;18.562;2023-07-16T10:55:50;100123.09;;;25.82;58.90
57024;BME280;42916;54.346;18.562;2023-07-16T10:58:16;100121.83;;;25.78;59.19
57024;BME280;42916;54.346;18.562;2023-07-16T11:00:44;100127.02;;;25.74;59.00
57024;BME280;42916;54.346;18.562;2023-07-16T11:03:15;100130.20;;;25.75;59.11
57024;BME280;42916;54.346;18.562;2023-07-16T11:05:45;100143.62;;;25.73;59.23
57024;BME280;42916;54.346;18.562;2023-07-16T11:08:22;100150.16;;;25.74;59.31
57024;BME280;42916;54.346;18.562;2023-07-16T11:10:56;100160.17;;;25.77;59.34
57024;BME280;42916;54.346;18.562;2023-07-16T11:13:28;100166.74;;;25.79;59.43
57024;BME280;42916;54.346;18.562;2023-07-16T11:15:55;100166.55;;;25.81;59.49
57024;BME280;42916;54.346;18.562;2023-07-16T11:18:23;100161.81;;;25.90;59.41
57024;BME280;42916;54.346;18.562;2023-07-16T11:20:52;100158.60;;;25.99;59.30
57024;BME280;42916;54.346;18.562;2023-07-16T11:23:19;100151.48;;;26.12;59.51
57024;BME280;42916;54.346;18.562;2023-07-16T11:25:47;100158.37;;;26.26;59.28
57024;BME280;42916;54.346;18.562;2023-07-16T11:28:14;100156.45;;;26.35;58.81
57024;BME280;42916;54.346;18.562;2023-07-16T11:30:41;100155.06;;;26.41;58.85
57024;BME280;42916;54.346;18.562;2023-07-16T11:33:12;100161.11;;;26.49;59.02
57024;BME280;42916;54.346;18.562;2023-07-16T11:35:39;100166.13;;;26.44;59.34
57024;BME280;42916;54.346;18.562;2023-07-16T11:38:07;100166.27;;;26.35;59.91
57024;BME280;42916;54.346;18.562;2023-07-16T11:40:35;100167.43;;;26.37;60.18
57024;BME280;42916;54.346;18.562;2023-07-16T11:43:10;100169.80;;;26.41;60.16
57024;BME280;42916;54.346;18.562;2023-07-16T11:45:38;100174.29;;;26.46;60.30
57024;BME280;42916;54.346;18.562;2023-07-16T11:48:05;100167.90;;;26.45;60.03
57024;BME280;42916;54.346;18.562;2023-07-16T11:50:32;100163.84;;;26.41;60.05
57024;BME280;42916;54.346;18.562;2023-07-16T11:53:00;100167.30;;;26.53;59.93
57024;BME280;42916;54.346;18.562;2023-07-16T11:55:30;100163.06;;;26.66;59.87
57024;BME280;42916;54.346;18.562;2023-07-16T11:57:57;100159.94;;;26.79;59.50
57024;BME280;42916;54.346;18.562;2023-07-16T12:00:26;100154.63;;;27.08;59.26
57024;BME280;42916;54.346;18.562;2023-07-16T12:02:52;100150.20;;;27.46;58.73
57024;BME280;42916;54.346;18.562;2023-07-16T12:05:21;100157.12;;;27.72;56.82
57024;BME280;42916;54.346;18.562;2023-07-16T12:07:48;100145.58;;;27.91;56.64
57024;BME280;42916;54.346;18.562;2023-07-16T12:10:15;100146.52;;;28.29;56.59
57024;BME280;42916;54.346;18.562;2023-07-16T12:12:41;100142.87;;;28.60;54.65
57024;BME280;42916;54.346;18.562;2023-07-16T12:15:08;100145.89;;;28.82;53.92
57024;BME280;42916;54.346;18.562;2023-07-16T12:17:35;100148.59;;;28.80;52.87
57024;BME280;42916;54.346;18.562;2023-07-16T12:20:03;100145.95;;;28.88;52.99
57024;BME280;42916;54.346;18.562;2023-07-16T12:22:31;100150.96;;;28.95;52.49
57024;BME280;42916;54.346;18.562;2023-07-16T12:24:58;100159.20;;;29.05;52.29
57024;BME280;42916;54.346;18.562;2023-07-16T12:27:25;100160.73;;;28.98;50.49
57024;BME280;42916;54.346;18.562;2023-07-16T12:29:52;100154.50;;;28.62;50.57
57024;BME280;42916;54.346;18.562;2023-07-16T12:32:19;100161.27;;;28.48;51.27
57024;BME280;42916;54.346;18.562;2023-07-16T12:34:47;100163.19;;;28.26;50.48
57024;BME280;42916;54.346;18.562;2023-07-16T12:37:14;100156.19;;;28.08;50.82
57024;BME280;42916;54.346;18.562;2023-07-16T12:39:40;100161.11;;;28.06;51.40
57024;BME280;42916;54.346;18.562;2023-07-16T12:42:07;100162.66;;;27.96;51.86
57024;BME280;42916;54.346;18.562;2023-07-16T12:44:34;100153.77;;;27.85;52.88
57024;BME280;42916;54.346;18.562;2023-07-16T12:47:01;100159.38;;;27.90;53.30
57024;BME280;42916;54.346;18.562;2023-07-16T12:49:28;100159.54;;;27.79;53.06
57024;BME280;42916;54.346;18.562;2023-07-16T12:51:55;100164.89;;;27.63;53.63
57024;BME280;42916;54.346;18.562;2023-07-16T12:54:22;100174.60;;;27.78;53.23
57024;BME280;42916;54.346;18.562;2023-07-16T12:56:50;100174.88;;;28.15;53.35
57024;BME280;42916;54.346;18.562;2023-07-16T12:59:16;100169.65;;;28.52;52.39
57024;BME280;42916;54.346;18.562;2023-07-16T13:01:43;100174.42;;;29.06;52.77